Time;durP1;ratioP1;P1;durP2;ratioP2;P2;SDS_P1;SDS_P2;PMS_P1;PMS_P2;Temp;Humidity;BMP_temperature;BMP_pressure;BME280_temperature;BME280_humidity;BME280_pressure;Samples;Min_cycle;Max_cycle;Signal;HPM_P1;HPM_P2
2023/04/20 00:01:40;;;;;;;5.10;2.63;;;8.70;51.00;;;;;;5040155;28;20056;-77
2023/04/20 00:04:07;;;;;;;4.32;2.20;;;8.70;51.10;;;;;;5072404;28;20031;-77
2023/04/20 00:06:33;;;;;;;4.75;2.30;;;8.70;51.20;;;;;;5060976;28;20051;-77
2023/04/20 00:09:00;;;;;;;4.43;2.92;;;8.60;51.30;;;;;;5081728;28;20039;-77
2023/04/20 00:11:26;;;;;;;3.22;1.92;;;8.60;51.40;;;;;;5067915;28;20419;-77
2023/04/20 00:13:52;;;;;;;5.30;2.88;;;8.60;51.50;;;;;;5052300;28;20031;-77
2023/04/20 00:16:18;;;;;;;3.42;2.30;;;8.60;51.60;;;;;;5048418;28;20046;-78
2023/04/20 00:18:47;;;;;;;3.50;2.40;;;8.60;51.80;;;;;;5059672;28;20418;-77
2023/04/20 00:21:13;;;;;;;3.97;2.78;;;8.60;51.90;;;;;;5008710;28;20036;-77
2023/04/20 00:23:41;;;;;;;4.45;2.70;;;8.60;52.10;;;;;;5073119;28;20036;-77
2023/04/20 00:26:06;;;;;;;5.95;2.67;;;8.60;52.20;;;;;;5041295;28;20102;-77
2023/04/20 00:28:32;;;;;;;4.57;2.83;;;8.60;52.40;;;;;;5048344;28;20035;-77
2023/04/20 00:30:58;;;;;;;5.90;2.97;;;8.60;52.60;;;;;;5044898;28;20040;-77
2023/04/20 00:33:24;;;;;;;4.35;2.75;;;8.60;52.80;;;;;;5039373;28;20057;-77
2023/04/20 00:35:50;;;;;;;4.00;2.80;;;8.60;53.00;;;;;;5072709;28;20064;-77
2023/04/20 00:38:15;;;;;;;4.78;3.03;;;8.50;53.10;;;;;;5032402;28;20040;-77
2023/04/20 00:40:47;;;;;;;3.65;2.60;;;8.50;53.50;;;;;;5057891;28;20527;-77
2023/04/20 00:43:14;;;;;;;3.90;2.90;;;8.50;53.50;;;;;;5055664;28;20395;-77
2023/04/20 00:45:40;;;;;;;3.75;2.53;;;8.50;53.60;;;;;;5077701;28;20036;-77
2023/04/20 00:48:06;;;;;;;4.55;2.75;;;8.50;53.70;;;;;;5060600;28;20092;-78
2023/04/20 00:50:33;;;;;;;5.38;3.17;;;8.50;53.80;;;;;;5077901;28;20444;-77
2023/04/20 00:53:00;;;;;;;4.18;2.30;;;8.50;54.00;;;;;;5052200;28;20123;-77
2023/04/20 00:55:28;;;;;;;4.20;2.83;;;8.50;54.40;;;;;;5060912;28;20032;-77
2023/04/20 00:57:53;;;;;;;4.47;2.47;;;8.50;54.10;;;;;;5038748;28;20052;-77
2023/04/20 01:00:20;;;;;;;3.97;2.50;;;8.50;54.20;;;;;;5073947;28;20036;-77
2023/04/20 01:02:46;;;;;;;4.10;2.70;;;8.50;54.30;;;;;;5029576;28;20044;-78
2023/04/20 01:05:12;;;;;;;5.22;2.70;;;8.50;54.40;;;;;;5066091;28;20040;-77
2023/04/20 01:07:38;;;;;;;4.38;2.90;;;8.50;54.50;;;;;;5072112;28;20033;-77
2023/04/20 01:10:06;;;;;;;4.47;2.53;;;8.50;54.60;;;;;;5057399;28;20109;-77
2023/04/20 01:12:31;;;;;;;4.03;2.70;;;8.50;54.70;;;;;;5040782;28;20391;-78
2023/04/20 01:14:57;;;;;;;4.57;2.30;;;8.50;54.70;;;;;;5040612;28;20124;-78
2023/04/20 01:17:23;;;;;;;7.47;2.83;;;8.50;54.80;;;;;;5040599;28;20040;-78
2023/04/20 01:19:49;;;;;;;3.30;2.10;;;8.50;54.90;;;;;;5056951;28;20047;-77
2023/04/20 01:22:21;;;;;;;4.55;2.75;;;8.50;55.00;;;;;;5023857;28;20048;-77
2023/04/20 01:24:47;;;;;;;3.40;2.33;;;8.50;55.30;;;;;;5050060;28;20034;-77
2023/04/20 01:27:15;;;;;;;4.30;2.60;;;8.50;55.30;;;;;;5068533;28;20463;-77
2023/04/20 01:29:41;;;;;;;3.45;2.40;;;8.50;55.40;;;;;;5060158;28;20040;-77
2023/04/20 01:32:06;;;;;;;3.38;2.20;;;8.50;55.50;;;;;;5063555;28;20043;-77
2023/04/20 01:34:32;;;;;;;3.60;2.78;;;8.50;55.70;;;;;;5076702;28;20389;-77
2023/04/20 01:36:58;;;;;;;3.55;2.63;;;8.50;55.80;;;;;;5076704;28;20040;-77
2023/04/20 01:39:24;;;;;;;3.28;2.35;;;8.50;56.30;;;;;;5057684;28;20044;-77
2023/04/20 01:41:50;;;;;;;4.25;2.67;;;8.50;56.30;;;;;;5048214;28;20043;-77
2023/04/20 01:44:16;;;;;;;4.28;2.58;;;8.50;56.60;;;;;;5073010;28;20040;-78
2023/04/20 01:46:41;;;;;;;3.97;2.63;;;8.50;56.90;;;;;;5062668;28;20427;-78
2023/04/20 01:49:08;;;;;;;5.25;3.25;;;8.50;57.70;;;;;;5043334;28;20036;-78
2023/04/20 01:51:34;;;;;;;5.28;2.97;;;8.50;58.20;;;;;;5033536;28;20050;-78
2023/04/20 01:54:00;;;;;;;5.15;2.50;;;8.50;58.50;;;;;;5089413;28;20037;-78
2023/04/20 01:56:26;;;;;;;4.78;2.67;;;8.50;58.80;;;;;;5075161;28;20040;-77
2023/04/20 01:58:52;;;;;;;6.00;3.50;;;8.50;59.10;;;;;;5051277;28;20048;-77
2023/04/20 02:01:18;;;;;;;5.80;2.88;;;8.50;59.80;;;;;;5073297;28;20076;-78
2023/04/20 02:03:44;;;;;;;4.20;2.42;;;8.40;60.10;;;;;;5077163;28;20047;-78
2023/04/20 02:06:09;;;;;;;5.45;2.50;;;8.50;60.50;;;;;;5059347;28;20039;-78
2023/04/20 02:08:35;;;;;;;5.15;2.33;;;8.40;60.60;;;;;;5042801;28;20509;-78
2023/04/20 02:11:01;;;;;;;5.00;2.42;;;8.50;60.80;;;;;;5059525;28;20038;-78
2023/04/20 02:13:27;;;;;;;4.50;2.20;;;8.40;61.10;;;;;;5075488;28;20479;-77
2023/04/20 02:15:53;;;;;;;3.78;2.58;;;8.50;61.50;;;;;;5092871;28;20444;-77
2023/04/20 02:18:19;;;;;;;6.30;2.50;;;8.40;61.40;;;;;;5069109;28;20379;-78
2023/04/20 02:20:45;;;;;;;5.40;2.53;;;8.40;61.70;;;;;;5075981;28;20047;-78
2023/04/20 02:23:11;;;;;;;5.63;2.88;;;8.40;61.40;;;;;;5079655;28;20040;-78
2023/04/20 02:25:37;;;;;;;4.82;2.47;;;8.50;61.70;;;;;;5059599;28;20376;-78
2023/04/20 02:28:03;;;;;;;4.82;2.88;;;8.50;61.80;;;;;;5070185;28;20044;-78
2023/04/20 02:30:29;;;;;;;4.75;2.05;;;8.50;62.00;;;;;;5059114;28;20476;-77
2023/04/20 02:32:55;;;;;;;5.07;2.25;;;8.50;62.00;;;;;;5042659;28;20036;-78
2023/04/20 02:35:21;;;;;;;4.13;1.95;;;8.50;61.70;;;;;;5071923;28;20135;-78
2023/04/20 02:37:47;;;;;;;4.53;2.42;;;8.50;61.80;;;;;;5022600;28;20037;-77
2023/04/20 02:40:13;;;;;;;4.05;1.75;;;8.40;61.80;;;;;;5055719;28;20076;-78
2023/04/20 02:42:39;;;;;;;5.55;2.10;;;8.50;62.00;;;;;;5062048;28;20492;-78
2023/04/20 02:45:05;;;;;;;6.25;2.05;;;8.50;62.20;;;;;;5054152;28;20048;-77
2023/04/20 02:47:31;;;;;;;6.70;2.40;;;8.40;62.30;;;;;;5058842;28;20040;-78
2023/04/20 02:49:57;;;;;;;5.75;2.13;;;8.40;62.40;;;;;;5025888;28;20104;-78
2023/04/20 02:52:23;;;;;;;6.03;2.20;;;8.40;62.60;;;;;;5075311;28;20043;-78
2023/04/20 02:54:48;;;;;;;6.45;2.10;;;8.40;62.70;;;;;;5075405;28;20128;-78
2023/04/20 02:57:14;;;;;;;4.63;2.00;;;8.40;62.90;;;;;;5058539;28;20040;-78
2023/04/20 02:59:40;;;;;;;3.20;1.75;;;8.40;63.20;;;;;;5058657;28;20043;-78
2023/04/20 03:02:06;;;;;;;5.05;2.00;;;8.40;63.10;;;;;;5041334;28;20040;-77
2023/04/20 03:04:31;;;;;;;3.00;1.77;;;8.40;63.10;;;;;;5058824;28;20041;-78
2023/04/20 03:06:57;;;;;;;3.72;2.10;;;8.40;63.30;;;;;;5047567;28;20524;-77
2023/04/20 03:09:24;;;;;;;3.78;2.00;;;8.40;63.30;;;;;;5058480;28;20089;-78
2023/04/20 03:11:50;;;;;;;3.42;1.92;;;8.40;63.40;;;;;;5091948;28;20044;-79
2023/04/20 03:14:15;;;;;;;6.63;2.30;;;8.40;63.30;;;;;;5022137;28;20448;-79
2023/04/20 03:16:41;;;;;;;4.82;2.10;;;8.40;63.60;;;;;;5054563;28;20040;-79
2023/04/20 03:19:07;;;;;;;7.43;1.92;;;8.40;63.90;;;;;;5038265;28;20055;-79
2023/04/20 03:21:33;;;;;;;3.45;1.73;;;8.40;64.10;;;;;;5073593;28;20043;-79
2023/04/20 03:23:59;;;;;;;6.50;2.30;;;8.40;64.00;;;;;;5039009;28;20090;-79
2023/04/20 03:26:25;;;;;;;5.18;2.20;;;8.50;64.10;;;;;;5021901;28;20063;-79
2023/04/20 03:28:51;;;;;;;5.82;2.25;;;8.50;64.20;;;;;;5038652;28;20028;-79
2023/04/20 03:31:17;;;;;;;4.28;1.92;;;8.50;64.20;;;;;;5021940;28;20037;-79
2023/04/20 03:33:42;;;;;;;6.05;2.35;;;8.50;64.10;;;;;;5064086;28;20127;-79
2023/04/20 03:36:10;;;;;;;11.82;2.50;;;8.50;64.10;;;;;;5041968;28;20052;-79
2023/04/20 03:38:35;;;;;;;6.93;2.75;;;8.50;64.60;;;;;;5075324;28;20044;-79
2023/04/20 03:41:01;;;;;;;8.02;2.50;;;8.50;64.30;;;;;;5056508;28;20440;-78
2023/04/20 03:43:27;;;;;;;4.97;2.65;;;8.50;64.60;;;;;;5058717;28;20044;-79
2023/04/20 03:45:54;;;;;;;13.32;3.08;;;8.50;64.40;;;;;;5041977;28;20476;-79
2023/04/20 03:48:20;;;;;;;5.10;2.08;;;8.50;63.90;;;;;;5075077;28;20040;-79
2023/04/20 03:50:45;;;;;;;6.03;2.35;;;8.50;63.70;;;;;;5065801;28;20131;-79
2023/04/20 03:53:11;;;;;;;5.75;2.28;;;8.50;63.60;;;;;;5025770;28;20041;-79
2023/04/20 03:55:37;;;;;;;6.78;2.30;;;8.50;63.30;;;;;;5069320;28;20430;-79
2023/04/20 03:58:05;;;;;;;7.97;2.10;;;8.50;63.00;;;;;;5078661;28;20098;-79
2023/04/20 04:00:31;;;;;;;7.25;1.90;;;8.50;62.60;;;;;;5084305;28;20051;-79
2023/04/20 04:02:57;;;;;;;4.20;2.05;;;8.50;62.10;;;;;;5041955;28;20041;-79
2023/04/20 04:05:23;;;;;;;4.20;1.92;;;8.50;61.80;;;;;;5042128;28;20074;-79
2023/04/20 04:07:49;;;;;;;4.63;1.98;;;8.50;61.10;;;;;;5058426;28;20392;-79
2023/04/20 04:10:17;;;;;;;3.65;2.03;;;8.50;60.50;;;;;;5058675;28;20055;-79
2023/04/20 04:12:46;;;;;;;4.97;1.73;;;8.50;60.20;;;;;;5045151;28;20425;-79
2023/04/20 04:15:12;;;;;;;5.85;1.80;;;8.50;60.10;;;;;;5067889;28;20032;-79
2023/04/20 04:17:38;;;;;;;6.28;2.28;;;8.50;59.90;;;;;;5075388;28;20480;-79
2023/04/20 04:20:07;;;;;;;5.60;2.33;;;8.60;60.00;;;;;;5058648;28;20028;-79
2023/04/20 04:22:33;;;;;;;7.05;2.03;;;8.60;60.00;;;;;;5095316;28;20090;-79
2023/04/20 04:24:59;;;;;;;4.40;2.10;;;8.60;59.90;;;;;;5061227;28;20071;-79
2023/04/20 04:27:28;;;;;;;5.45;1.98;;;8.60;59.80;;;;;;5094924;28;20127;-79
2023/04/20 04:29:55;;;;;;;5.45;2.28;;;8.60;60.10;;;;;;5078295;28;20122;-79
2023/04/20 04:32:23;;;;;;;6.25;2.50;;;8.60;59.80;;;;;;5078391;28;20438;-79
2023/04/20 04:34:49;;;;;;;4.07;2.30;;;8.60;60.00;;;;;;5094825;28;20052;-79
2023/04/20 04:37:15;;;;;;;4.20;2.45;;;8.60;60.70;;;;;;5042380;28;20136;-79
2023/04/20 04:39:40;;;;;;;5.75;2.28;;;8.60;60.70;;;;;;5058019;28;20562;-79
2023/04/20 04:42:06;;;;;;;6.47;1.98;;;8.60;60.50;;;;;;5041443;28;20395;-79
2023/04/20 04:44:32;;;;;;;4.55;2.10;;;8.60;60.60;;;;;;5035516;28;20503;-79
2023/04/20 04:46:58;;;;;;;4.60;1.65;;;8.50;61.00;;;;;;5061216;28;20089;-79
2023/04/20 04:49:24;;;;;;;6.85;2.75;;;8.50;61.20;;;;;;5062624;28;20041;-79
2023/04/20 04:51:49;;;;;;;3.72;2.25;;;8.50;61.10;;;;;;5034903;28;20040;-79
2023/04/20 04:54:15;;;;;;;4.03;2.60;;;8.50;61.90;;;;;;5057618;28;20497;-79
2023/04/20 04:56:41;;;;;;;8.52;2.92;;;8.40;62.10;;;;;;5024842;28;20052;-79
2023/04/20 04:59:06;;;;;;;5.72;2.75;;;8.40;62.50;;;;;;5057360;28;20044;-80
2023/04/20 05:01:32;;;;;;;5.72;2.10;;;8.40;63.30;;;;;;5040789;28;20079;-79
2023/04/20 05:03:58;;;;;;;4.07;2.13;;;8.40;63.70;;;;;;5008138;28;20036;-79
2023/04/20 05:06:24;;;;;;;6.53;2.45;;;8.30;63.60;;;;;;5048388;28;20067;-79
2023/04/20 05:08:49;;;;;;;3.42;2.20;;;8.30;63.10;;;;;;5066473;28;20043;-79
2023/04/20 05:11:15;;;;;;;4.65;2.72;;;8.30;63.10;;;;;;5041126;28;20494;-79
2023/04/20 05:13:41;;;;;;;6.20;1.95;;;8.20;62.90;;;;;;5040661;28;20043;-79
2023/04/20 05:16:06;;;;;;;5.78;2.42;;;8.20;63.20;;;;;;5024227;28;20166;-80
2023/04/20 05:18:32;;;;;;;5.55;2.30;;;8.20;63.50;;;;;;5057475;28;20032;-80
2023/04/20 05:20:58;;;;;;;4.47;1.83;;;8.10;62.70;;;;;;5040818;28;20480;-81
2023/04/20 05:23:24;;;;;;;4.15;2.00;;;8.10;63.30;;;;;;5040508;28;20040;-80
2023/04/20 05:25:50;;;;;;;6.35;1.92;;;8.10;63.70;;;;;;5032510;28;20102;-80
2023/04/20 05:28:16;;;;;;;6.45;2.15;;;8.10;64.00;;;;;;5070791;28;20044;-80
2023/04/20 05:30:42;;;;;;;5.70;2.40;;;8.10;64.20;;;;;;5067694;28;20079;-79
2023/04/20 05:33:08;;;;;;;7.72;3.00;;;8.00;64.50;;;;;;5052423;28;20491;-79
2023/04/20 05:35:33;;;;;;;6.88;2.30;;;8.10;65.20;;;;;;5072670;28;20094;-78
2023/04/20 05:38:01;;;;;;;7.18;2.28;;;8.10;65.30;;;;;;5043386;28;20047;-79
2023/04/20 05:40:27;;;;;;;4.18;2.13;;;8.00;65.20;;;;;;5027606;28;20040;-79
2023/04/20 05:42:53;;;;;;;4.38;2.28;;;8.00;65.30;;;;;;5043850;28;20139;-79
2023/04/20 05:45:19;;;;;;;4.32;2.20;;;8.10;65.40;;;;;;5027191;28;20044;-79
2023/04/20 05:47:55;;;;;;;3.47;1.55;;;8.00;65.40;;;;;;5076630;28;20044;-80
2023/04/20 05:50:24;;;;;;;5.55;2.13;;;8.00;65.50;;;;;;5073560;28;20044;-79
2023/04/20 05:52:51;;;;;;;5.43;2.45;;;8.00;65.10;;;;;;5057087;28;20388;-79
2023/04/20 05:55:17;;;;;;;4.53;2.28;;;8.10;64.60;;;;;;5056393;28;20040;-79
2023/04/20 05:57:43;;;;;;;5.88;2.20;;;8.00;64.60;;;;;;5056465;28;20193;-79
2023/04/20 06:00:14;;;;;;;3.80;2.17;;;8.10;65.00;;;;;;5076625;28;20075;-79
2023/04/20 06:02:40;;;;;;;4.72;2.22;;;8.10;65.40;;;;;;5051765;28;20040;-79
2023/04/20 06:05:08;;;;;;;6.65;2.13;;;8.00;65.50;;;;;;5079141;28;20074;-80
2023/04/20 06:07:33;;;;;;;4.55;2.08;;;8.10;65.60;;;;;;5056838;28;20044;-79
2023/04/20 06:10:00;;;;;;;4.20;2.00;;;8.00;65.80;;;;;;5038442;28;20111;-79
2023/04/20 06:12:28;;;;;;;3.08;2.00;;;8.10;65.80;;;;;;5058368;28;20470;-79
2023/04/20 06:14:55;;;;;;;3.88;2.15;;;8.00;65.70;;;;;;5075686;28;20070;-79
2023/04/20 06:17:21;;;;;;;4.32;2.33;;;8.00;65.70;;;;;;5034077;28;20132;-80
2023/04/20 06:19:46;;;;;;;3.45;2.03;;;8.00;65.70;;;;;;5022866;28;20127;-79
2023/04/20 06:22:12;;;;;;;5.97;2.40;;;8.00;66.30;;;;;;5071858;28;20118;-79
2023/04/20 06:24:41;;;;;;;5.50;2.38;;;7.90;66.70;;;;;;5079613;28;20107;-79
2023/04/20 06:27:10;;;;;;;7.65;2.70;;;7.90;67.30;;;;;;5096073;28;20123;-79
2023/04/20 06:29:36;;;;;;;5.63;2.72;;;7.90;68.00;;;;;;5054829;28;20050;-79
2023/04/20 06:32:03;;;;;;;9.48;2.63;;;7.80;68.60;;;;;;5092097;28;20036;-79
2023/04/20 06:34:29;;;;;;;8.70;2.88;;;7.80;69.20;;;;;;5075663;28;20127;-80
2023/04/20 06:36:54;;;;;;;5.50;2.85;;;7.80;69.70;;;;;;5059270;28;20136;-79
2023/04/20 06:39:20;;;;;;;6.18;2.75;;;7.70;70.20;;;;;;5025630;28;20044;-81
2023/04/20 06:41:46;;;;;;;7.20;3.72;;;7.70;70.60;;;;;;5041864;28;20040;-79
2023/04/20 06:44:12;;;;;;;4.90;2.65;;;7.60;71.30;;;;;;5066762;28;20088;-80
2023/04/20 06:46:37;;;;;;;6.88;2.92;;;7.60;71.50;;;;;;5075331;28;20491;-80
2023/04/20 06:49:03;;;;;;;6.85;2.67;;;7.60;71.90;;;;;;5038703;28;20056;-80
2023/04/20 06:51:31;;;;;;;6.10;2.53;;;7.60;72.20;;;;;;5064945;28;20095;-79
2023/04/20 06:53:56;;;;;;;4.80;2.35;;;7.50;72.40;;;;;;5095634;28;20042;-79
2023/04/20 06:56:22;;;;;;;4.35;2.70;;;7.50;72.30;;;;;;5062533;28;20043;-80
2023/04/20 06:58:48;;;;;;;6.35;2.75;;;7.40;72.70;;;;;;5095855;28;20665;-79
2023/04/20 07:01:14;;;;;;;6.60;2.53;;;7.40;72.80;;;;;;5062194;28;20403;-79
2023/04/20 07:03:39;;;;;;;7.68;3.10;;;7.30;72.80;;;;;;5078823;28;20043;-80
2023/04/20 07:06:06;;;;;;;6.85;2.88;;;7.30;73.00;;;;;;5062419;28;20044;-79
2023/04/20 07:08:32;;;;;;;10.43;3.47;;;7.30;72.90;;;;;;5095811;28;20039;-79
2023/04/20 07:10:58;;;;;;;6.55;3.42;;;7.20;73.10;;;;;;5045602;28;20050;-79
2023/04/20 07:13:24;;;;;;;5.68;2.90;;;7.20;73.50;;;;;;5095109;28;20036;-79
2023/04/20 07:15:51;;;;;;;5.43;2.88;;;7.10;73.80;;;;;;5078739;28;20413;-79
2023/04/20 07:18:16;;;;;;;5.13;3.20;;;7.10;74.00;;;;;;5095630;28;20071;-79
2023/04/20 07:20:42;;;;;;;5.80;3.25;;;7.00;74.10;;;;;;5078471;28;20517;-79
2023/04/20 07:23:08;;;;;;;7.07;3.50;;;7.00;74.60;;;;;;5092413;28;20043;-79
2023/04/20 07:25:34;;;;;;;4.78;3.45;;;7.00;74.80;;;;;;5041787;28;20043;-79
2023/04/20 07:28:00;;;;;;;4.85;3.15;;;6.90;75.10;;;;;;5058301;28;20032;-80
2023/04/20 07:30:25;;;;;;;4.88;3.30;;;6.90;75.30;;;;;;5095346;28;20414;-79
2023/04/20 07:32:51;;;;;;;7.65;3.38;;;6.80;75.30;;;;;;5078552;28;20065;-78
2023/04/20 07:35:17;;;;;;;8.45;3.50;;;6.80;75.50;;;;;;5058077;28;20052;-79
2023/04/20 07:37:43;;;;;;;6.95;3.40;;;6.70;75.80;;;;;;5075435;28;20047;-79
2023/04/20 07:40:09;;;;;;;7.70;4.35;;;6.70;76.00;;;;;;5091611;28;20221;-79
2023/04/20 07:42:36;;;;;;;6.05;3.35;;;6.70;76.30;;;;;;5041859;28;20040;-80
2023/04/20 07:45:02;;;;;;;7.20;3.75;;;6.60;76.40;;;;;;5075160;28;20048;-79
2023/04/20 07:47:28;;;;;;;8.25;3.60;;;6.60;76.70;;;;;;5058515;28;20081;-79
2023/04/20 07:49:56;;;;;;;5.72;3.42;;;6.60;76.80;;;;;;5058372;28;20123;-79
2023/04/20 07:52:22;;;;;;;5.45;3.88;;;6.60;77.20;;;;;;5041931;28;20036;-79
2023/04/20 07:54:48;;;;;;;7.05;3.83;;;6.60;77.40;;;;;;5085966;28;20458;-80
2023/04/20 07:57:14;;;;;;;8.15;3.40;;;6.60;77.80;;;;;;5057389;28;20131;-80
2023/04/20 07:59:40;;;;;;;6.80;3.60;;;6.60;77.90;;;;;;5041524;28;20044;-79
2023/04/20 08:02:07;;;;;;;6.80;4.18;;;6.60;77.80;;;;;;5075089;28;20059;-78
2023/04/20 08:04:32;;;;;;;6.55;3.80;;;6.60;78.00;;;;;;5063014;28;20055;-79
2023/04/20 08:06:58;;;;;;;6.63;3.60;;;6.60;78.00;;;;;;5046297;28;20407;-79
2023/04/20 08:09:25;;;;;;;5.93;3.72;;;6.70;78.10;;;;;;5030729;28;20040;-79
2023/04/20 08:11:51;;;;;;;7.07;3.85;;;6.70;78.30;;;;;;5074793;28;20043;-79
2023/04/20 08:14:16;;;;;;;6.82;3.83;;;6.70;78.40;;;;;;5091481;28;20036;-79
2023/04/20 08:16:42;;;;;;;5.90;3.70;;;6.70;78.50;;;;;;5058190;28;20040;-80
2023/04/20 08:19:10;;;;;;;5.47;3.83;;;6.80;78.60;;;;;;5058235;28;20047;-79
2023/04/20 08:21:40;;;;;;;7.32;3.80;;;6.80;78.70;;;;;;5087463;28;20077;-78
2023/04/20 08:24:06;;;;;;;6.47;3.78;;;6.80;78.90;;;;;;5074824;28;20044;-79
2023/04/20 08:26:33;;;;;;;7.75;3.85;;;6.80;78.60;;;;;;5092595;28;20044;-79
2023/04/20 08:29:00;;;;;;;7.68;4.22;;;6.80;78.90;;;;;;5078168;28;20032;-79
2023/04/20 08:31:26;;;;;;;6.75;3.78;;;6.90;79.00;;;;;;5078161;28;20040;-80
2023/04/20 08:33:52;;;;;;;6.93;3.83;;;6.90;79.10;;;;;;5077734;28;20063;-79
2023/04/20 08:36:18;;;;;;;7.60;4.00;;;7.00;79.20;;;;;;5078349;28;20040;-79
2023/04/20 08:38:43;;;;;;;6.68;4.28;;;7.10;79.80;;;;;;5076010;28;20478;-79
2023/04/20 08:41:12;;;;;;;7.63;4.22;;;7.20;80.00;;;;;;5094805;28;20032;-79
2023/04/20 08:43:38;;;;;;;6.50;3.90;;;7.30;80.40;;;;;;5094959;28;20040;-79
2023/04/20 08:46:04;;;;;;;5.85;3.78;;;7.40;80.60;;;;;;5077832;28;20059;-79
2023/04/20 08:48:35;;;;;;;5.47;3.53;;;7.50;80.50;;;;;;5050459;28;20090;-79
2023/04/20 08:51:04;;;;;;;5.63;4.05;;;7.60;80.50;;;;;;5057614;28;20040;-79
2023/04/20 08:53:33;;;;;;;7.28;3.80;;;7.70;79.90;;;;;;5040979;28;20131;-79
2023/04/20 08:55:59;;;;;;;5.95;3.78;;;7.80;79.30;;;;;;5059767;28;20044;-79
2023/04/20 08:58:30;;;;;;;6.60;3.90;;;7.80;78.40;;;;;;5044404;28;20117;-78
2023/04/20 09:00:56;;;;;;;7.38;3.65;;;8.10;78.10;;;;;;5077849;28;20048;-79
2023/04/20 09:03:36;;;;;;;7.13;4.10;;;7.90;77.60;;;;;;5044419;28;20047;-79
2023/04/20 09:06:03;;;;;;;10.07;4.50;;;7.90;77.00;;;;;;5077338;28;20131;-79
2023/04/20 09:08:40;;;;;;;8.63;4.38;;;7.90;77.00;;;;;;5061195;28;20054;-78
2023/04/20 09:11:19;;;;;;;6.68;3.85;;;7.90;76.80;;;;;;5077521;28;20055;-79
2023/04/20 09:13:55;;;;;;;7.22;4.93;;;7.90;76.80;;;;;;5045800;28;20094;-79
2023/04/20 09:16:21;;;;;;;9.43;4.93;;;8.00;76.60;;;;;;5061166;28;20036;-79
2023/04/20 09:18:56;;;;;;;8.68;4.85;;;8.00;76.70;;;;;;5060599;28;20059;-78
2023/04/20 09:21:24;;;;;;;7.25;3.97;;;8.00;77.00;;;;;;5077130;28;20618;-79
2023/04/20 09:23:58;;;;;;;8.45;4.55;;;8.00;77.00;;;;;;5077200;28;20028;-79
2023/04/20 09:26:24;;;;;;;11.32;4.90;;;8.10;76.90;;;;;;5060308;28;20048;-79
2023/04/20 09:28:50;;;;;;;7.40;4.95;;;8.10;76.80;;;;;;5073620;28;20041;-79
2023/04/20 09:31:20;;;;;;;6.35;4.20;;;8.10;76.80;;;;;;5057119;28;20062;-79
2023/04/20 09:34:02;;;;;;;8.23;4.30;;;8.20;76.50;;;;;;5056921;28;20071;-78
2023/04/20 09:36:40;;;;;;;8.35;4.55;;;8.20;76.30;;;;;;5040391;28;20052;-79
2023/04/20 09:39:09;;;;;;;7.25;5.28;;;8.20;76.20;;;;;;5040095;28;20055;-79
2023/04/20 09:41:36;;;;;;;8.00;4.93;;;8.20;76.20;;;;;;5040112;28;20040;-79
2023/04/20 09:44:02;;;;;;;6.00;4.72;;;8.20;76.30;;;;;;5072958;28;20542;-79
2023/04/20 09:46:32;;;;;;;7.53;4.80;;;8.30;76.70;;;;;;5056993;28;20464;-79
2023/04/20 09:48:59;;;;;;;6.68;4.60;;;8.30;76.80;;;;;;5040276;28;20032;-78
2023/04/20 09:51:26;;;;;;;8.57;4.93;;;8.40;76.80;;;;;;5039864;28;20752;-79
2023/04/20 09:53:56;;;;;;;11.48;4.78;;;8.50;77.10;;;;;;5040568;28;20127;-79
2023/04/20 09:56:23;;;;;;;9.00;4.50;;;8.60;77.10;;;;;;5053852;28;20510;-79
2023/04/20 09:58:50;;;;;;;9.70;5.32;;;8.60;76.80;;;;;;5076619;28;20414;-79
2023/04/20 10:01:16;;;;;;;6.78;4.10;;;8.70;76.90;;;;;;5070542;28;20078;-79
2023/04/20 10:03:43;;;;;;;6.75;5.03;;;8.70;76.60;;;;;;5049824;28;20040;-79
2023/04/20 10:06:23;;;;;;;9.32;5.05;;;8.70;76.60;;;;;;5039600;28;20097;-79
2023/04/20 10:08:50;;;;;;;8.13;4.72;;;8.80;76.50;;;;;;5067104;28;20564;-79
2023/04/20 10:11:32;;;;;;;8.38;5.00;;;8.80;76.40;;;;;;5093392;28;20059;-79
2023/04/20 10:14:00;;;;;;;9.38;5.00;;;8.90;76.30;;;;;;5093242;28;20391;-79
2023/04/20 10:16:26;;;;;;;8.88;5.03;;;9.00;76.40;;;;;;5092892;28;20044;-79
2023/04/20 10:19:05;;;;;;;8.65;5.63;;;9.00;75.80;;;;;;5076262;28;20043;-79
2023/04/20 10:21:32;;;;;;;8.50;5.22;;;9.00;75.70;;;;;;5075988;28;20127;-79
2023/04/20 10:24:02;;;;;;;9.32;5.10;;;9.10;75.20;;;;;;5074055;28;20048;-79
2023/04/20 10:26:39;;;;;;;7.75;4.78;;;9.10;75.30;;;;;;5023680;28;20117;-79
2023/04/20 10:29:08;;;;;;;7.20;5.15;;;9.20;75.70;;;;;;5055938;28;20506;-78
2023/04/20 10:31:39;;;;;;;9.93;5.18;;;9.20;75.70;;;;;;5062455;28;20032;-79
2023/04/20 10:34:05;;;;;;;8.50;5.07;;;9.20;75.30;;;;;;5042820;28;20097;-78
2023/04/20 10:36:35;;;;;;;10.02;5.07;;;9.20;74.60;;;;;;5059022;28;20483;-79
2023/04/20 10:39:14;;;;;;;7.50;4.78;;;9.20;74.40;;;;;;5059119;28;20472;-78
2023/04/20 10:41:54;;;;;;;7.28;4.82;;;9.10;74.20;;;;;;5059359;28;20094;-78
2023/04/20 10:44:20;;;;;;;7.78;5.60;;;9.10;74.90;;;;;;5059053;28;20127;-78
2023/04/20 10:46:50;;;;;;;12.90;6.10;;;9.20;75.40;;;;;;5042592;28;20044;-78
2023/04/20 10:49:17;;;;;;;8.90;5.50;;;9.20;75.70;;;;;;5072058;28;20033;-78
2023/04/20 10:51:50;;;;;;;9.85;5.57;;;9.40;76.10;;;;;;5047700;28;20048;-78
2023/04/20 10:54:16;;;;;;;8.05;5.88;;;9.50;76.30;;;;;;5055461;28;20040;-78
2023/04/20 10:56:44;;;;;;;9.23;5.35;;;9.70;77.00;;;;;;5055557;28;20150;-79
2023/04/20 10:59:12;;;;;;;8.43;5.53;;;9.80;76.00;;;;;;5055582;28;20411;-78
2023/04/20 11:01:39;;;;;;;9.65;5.57;;;9.90;75.00;;;;;;5038698;28;20194;-79
2023/04/20 11:04:06;;;;;;;9.02;6.30;;;9.90;74.10;;;;;;5040180;28;20047;-78
2023/04/20 11:06:32;;;;;;;11.45;6.15;;;10.00;73.60;;;;;;5078627;28;20050;-78
2023/04/20 11:08:58;;;;;;;9.52;6.05;;;10.00;72.90;;;;;;5062547;28;20032;-78
2023/04/20 11:11:28;;;;;;;8.43;6.13;;;10.00;73.00;;;;;;5025589;28;20094;-78
2023/04/20 11:14:11;;;;;;;11.80;5.95;;;10.10;72.60;;;;;;5042566;28;20032;-78
2023/04/20 11:16:37;;;;;;;8.63;5.82;;;10.10;71.80;;;;;;5071799;28;20048;-78
2023/04/20 11:19:04;;;;;;;8.38;5.82;;;10.10;71.80;;;;;;5038658;28;20044;-78
2023/04/20 11:21:38;;;;;;;7.65;6.03;;;10.10;71.90;;;;;;5022013;28;20040;-78
2023/04/20 11:24:05;;;;;;;8.45;6.88;;;10.10;72.00;;;;;;5041423;28;20079;-78
2023/04/20 11:26:39;;;;;;;7.97;6.25;;;10.10;72.10;;;;;;5075219;28;20471;-78
2023/04/20 11:29:05;;;;;;;10.48;6.70;;;10.10;72.20;;;;;;5059337;28;20450;-78
2023/04/20 11:31:31;;;;;;;9.30;7.05;;;10.20;72.10;;;;;;5095329;28;20067;-78
2023/04/20 11:33:57;;;;;;;8.27;6.28;;;10.30;71.80;;;;;;5061375;28;20127;-78
2023/04/20 11:36:25;;;;;;;7.95;6.40;;;10.40;71.90;;;;;;5078544;28;20390;-78
2023/04/20 11:38:51;;;;;;;8.93;7.25;;;10.50;70.90;;;;;;5095390;28;20039;-78
2023/04/20 11:41:17;;;;;;;9.77;7.03;;;10.60;70.40;;;;;;5078234;28;20448;-78
2023/04/20 11:43:44;;;;;;;8.65;6.97;;;10.70;70.20;;;;;;5074476;28;20118;-78
2023/04/20 11:46:18;;;;;;;7.32;6.28;;;10.80;69.80;;;;;;5095036;28;20082;-77
2023/04/20 11:48:47;;;;;;;12.43;7.13;;;10.80;68.70;;;;;;5095389;28;20046;-78
2023/04/20 11:51:14;;;;;;;9.82;7.60;;;10.70;68.90;;;;;;5061892;28;20386;-78
2023/04/20 11:53:40;;;;;;;9.65;7.30;;;10.80;68.70;;;;;;5078233;28;20032;-78
2023/04/20 11:56:07;;;;;;;14.20;8.50;;;10.80;68.60;;;;;;5077876;28;20062;-78
2023/04/20 11:58:33;;;;;;;10.38;7.22;;;10.90;68.50;;;;;;5047154;28;20051;-78
2023/04/20 12:00:59;;;;;;;9.10;7.85;;;11.00;68.80;;;;;;5054751;28;20044;-78
2023/04/20 12:03:25;;;;;;;7.75;6.63;;;11.20;69.00;;;;;;5056142;28;20040;-78
2023/04/20 12:05:51;;;;;;;10.05;7.95;;;11.30;66.70;;;;;;5082190;28;20403;-82
2023/04/20 12:08:17;;;;;;;9.82;7.50;;;11.30;66.40;;;;;;5047653;28;20037;-78
2023/04/20 12:10:43;;;;;;;12.27;7.18;;;11.40;66.20;;;;;;5061135;28;20105;-78
2023/04/20 12:13:09;;;;;;;9.52;7.18;;;11.50;65.40;;;;;;5042478;28;20510;-79
2023/04/20 12:15:35;;;;;;;10.27;7.13;;;11.50;63.10;;;;;;5041620;28;20243;-81
2023/04/20 12:18:01;;;;;;;10.98;7.78;;;11.50;62.60;;;;;;5057986;28;20041;-79
2023/04/20 12:20:26;;;;;;;8.18;6.82;;;11.50;62.40;;;;;;5082067;28;20127;-80
2023/04/20 12:22:52;;;;;;;10.02;7.30;;;11.50;62.10;;;;;;5065587;28;20480;-80
2023/04/20 12:25:19;;;;;;;9.27;7.25;;;11.40;62.40;;;;;;5064968;28;20452;-79
2023/04/20 12:27:45;;;;;;;8.48;7.07;;;11.40;62.20;;;;;;5081542;28;20035;-80
2023/04/20 12:30:11;;;;;;;9.60;7.80;;;11.40;62.70;;;;;;5098362;28;20080;-80
2023/04/20 12:32:36;;;;;;;11.02;7.57;;;11.40;63.30;;;;;;5081756;28;20398;-81
2023/04/20 12:35:02;;;;;;;8.88;7.65;;;11.50;63.30;;;;;;5064715;28;20096;-80
2023/04/20 12:37:28;;;;;;;11.02;7.65;;;11.60;63.40;;;;;;5098310;28;20040;-79
2023/04/20 12:39:54;;;;;;;9.07;6.82;;;11.70;63.30;;;;;;5081497;28;20039;-79
2023/04/20 12:42:20;;;;;;;11.60;7.15;;;11.70;64.50;;;;;;5081500;28;20096;-81
2023/04/20 12:44:45;;;;;;;9.98;6.88;;;11.80;63.90;;;;;;5048282;28;20134;-81
2023/04/20 12:47:12;;;;;;;12.32;7.65;;;11.80;61.90;;;;;;5064572;28;20075;-80
2023/04/20 12:49:38;;;;;;;8.55;6.88;;;11.80;60.80;;;;;;5064115;28;20035;-80
2023/04/20 12:52:03;;;;;;;9.27;7.53;;;11.70;60.20;;;;;;5039386;28;20039;-78
2023/04/20 12:54:29;;;;;;;7.95;7.10;;;11.70;60.80;;;;;;5076549;28;20499;-78